Francisco Bangoy International Airport
RPMD : now visible

Airfield :











YOU CAN JOIN US ON...

 
LOGIN :

Register | Disclaimer

   EN    FR    IT 

 









Legend :    VFR   Marginal VFR   IFR   Intensive IFR   Very Intensive IFR
Visi :
Ceiling :
>= 8 km
>= 3000ft
5 to 8 km
1000 to 3000 ft
1500m to 5 km
500 to 1000 ft
800 to 1500m
200 to 500 ft
< 800m
< 200 ft
Symbols :   Thunderstorms  Fog  Heavy snow  Heavy precipitations  Wind > 20 kt






- Airport Elevation : 96 ft
- IATA code : DVO


RPMD - Francisco Bangoy International

CURRENT METAR :
  • 270000Z 02002KT 9999 FEW016 28/24 Q1012 RMK A2988

EXPIRED METARs :
  • 262300Z 00000KT 9999 FEW016 26/24 Q1011 RMK A2985
  • 262200Z 32002KT 9999 FEW016 BKN290 26/24 Q1011 RMK A2985

TAF TAF RPMD
Valid from the 27 at 00:00 until the 28 at 00:00 UTC


262300Z 2700/2724 36006KT 9999 FEW016 SCT290
TEMPO 2700/2706 04008KT SCT016 BKN290
TEMPO 2706/2712 16005KT 9000 -RA SCT016 BKN080 OVC290



MET'MAP, your aeronautical weather chart ! - Copyright ORBIFLY December 2007 - Disclaimer

ORBIFLY MET'MAP TEAM :

Programming & Development : Alexandra Zaïnal
Concept & original design : Baudouin d'Aumeries
Assistance for programming : Marc-Olivier Méhu
Technical & hardware support : Manuel Goepfert

Contact : metmap@orbifly.com




SOURCES & CREDITS :

   NOAA       Earth
Advisory